This is the latest recevied weather packets stored in our database for station/object K5NWZ. If no packets are shown the sender has not sent any weather packets the latest 10 day(s).
| Time | Temp. | Humidity | Pressure | Rain* | Wind** | Luminosity | Snow |
|---|---|---|---|---|---|---|---|
| 1787793620 | 25° C | 52% | 1032.2 hPa | 0 mm | - | 11 W/m² | - |
| 1787793316 | 25° C | 50% | 1032.2 hPa | 0 mm | - | 14 W/m² | - |
| 1787793016 | 25.56° C | 48% | 1032 hPa | 0 mm | - | 19 W/m² | - |
| 1787792711 | 26.11° C | 45% | 1031.7 hPa | 0 mm | - | 23 W/m² | - |
| 1787792409 | 26.11° C | 45% | 1031.7 hPa | 0 mm | - | 27 W/m² | - |
| 1787792107 | 26.67° C | 43% | 1031.6 hPa | 0 mm | - | 35 W/m² | - |
| 1787791806 | 26.67° C | 44% | 1031.7 hPa | 0 mm | - | 61 W/m² | - |
| 1787791501 | 26.67° C | 44% | 1032 hPa | 0 mm | - | 65 W/m² | - |
| 1787791196 | 26.11° C | 45% | 1032.2 hPa | 0 mm | - | 53 W/m² | - |
| 1787790892 | 25.56° C | 47% | 1032.5 hPa | 0 mm | - | 52 W/m² | - |
| 1787790587 | 25.56° C | 47% | 1032.7 hPa | 0 mm | - | 41 W/m² | - |
| 1787790282 | 26.11° C | 47% | 1032.5 hPa | 0 mm | - | 42 W/m² | - |
| 1787789978 | 26.11° C | 46% | 1032.3 hPa | 0 mm | - | 56 W/m² | - |
| 1787789677 | 27.22° C | 46% | 1032.4 hPa | 0 mm | - | 66 W/m² | - |
| 1787789372 | 27.78° C | 43% | 1032.4 hPa | 0 mm | - | 137 W/m² | - |
| 1787789066 | 26.67° C | 45% | 1032 hPa | 0 mm | - | 81 W/m² | - |
| 1787788764 | 25.56° C | 49% | 1032.5 hPa | 0 mm | - | 191 W/m² | - |
| 1787788459 | 23.89° C | 55% | 1032.5 hPa | 0 mm | - | 223 W/m² | - |
| 1787788154 | 23.89° C | 56% | 1032.3 hPa | 0 mm | - | 74 W/m² | - |
| 1787787848 | 25° C | 53% | 1032.9 hPa | 0 mm | - | 44 W/m² | - |
| 1787787548 | 25° C | 47% | 1033 hPa | 0 mm | - | 34 W/m² | - |
| 1787787242 | 25° C | 49% | 1033 hPa | 0 mm | - | 29 W/m² | - |
| 1787786941 | 25° C | 50% | 1032.9 hPa | 0 mm | - | 31 W/m² | - |
| 1787786637 | 25° C | 51% | 1032.6 hPa | 0 mm | - | 35 W/m² | - |
| 1787786331 | 25° C | 51% | 1032.4 hPa | 0 mm | - | 41 W/m² | - |
* Rain latest hour (hover to see other rain measurements)
** Current wind speed in m/s (hover to see current wind gust speed)